sensor_id;sensor_type;location;lat;lon;timestamp;temperature;humidity
21563;DHT22;10942;47.894;11.424;2023-06-14T00:14:19;12.20;99.90
21563;DHT22;10942;47.894;11.424;2023-06-14T00:16:45;12.20;99.90
21563;DHT22;10942;47.894;11.424;2023-06-14T00:19:11;12.20;99.90
21563;DHT22;10942;47.894;11.424;2023-06-14T00:21:37;12.10;99.90
21563;DHT22;10942;47.894;11.424;2023-06-14T00:24:03;12.00;99.90
21563;DHT22;10942;47.894;11.424;2023-06-14T00:26:30;11.90;99.90
21563;DHT22;10942;47.894;11.424;2023-06-14T00:28:56;11.90;99.90
21563;DHT22;10942;47.894;11.424;2023-06-14T00:31:22;11.80;99.90
21563;DHT22;10942;47.894;11.424;2023-06-14T00:33:48;11.80;99.90
21563;DHT22;10942;47.894;11.424;2023-06-14T00:41:08;11.60;99.90
21563;DHT22;10942;47.894;11.424;2023-06-14T00:43:34;11.50;99.90
21563;DHT22;10942;47.894;11.424;2023-06-14T00:46:00;11.50;99.90
21563;DHT22;10942;47.894;11.424;2023-06-14T00:48:26;11.40;99.90
21563;DHT22;10942;47.894;11.424;2023-06-14T00:53:19;11.40;99.90
21563;DHT22;10942;47.894;11.424;2023-06-14T00:55:47;11.30;99.90
21563;DHT22;10942;47.894;11.424;2023-06-14T00:58:16;11.30;99.90
21563;DHT22;10942;47.894;11.424;2023-06-14T01:00:42;11.30;99.90
21563;DHT22;10942;47.894;11.424;2023-06-14T01:03:07;11.20;99.90
21563;DHT22;10942;47.894;11.424;2023-06-14T01:05:38;11.10;99.90
21563;DHT22;10942;47.894;11.424;2023-06-14T01:11:13;11.10;99.90
21563;DHT22;10942;47.894;11.424;2023-06-14T01:13:45;11.10;99.90
21563;DHT22;10942;47.894;11.424;2023-06-14T01:16:12;11.10;99.90
21563;DHT22;10942;47.894;11.424;2023-06-14T01:18:38;11.00;99.90
21563;DHT22;10942;47.894;11.424;2023-06-14T01:21:04;11.10;99.90
21563;DHT22;10942;47.894;11.424;2023-06-14T01:23:31;11.00;99.90
21563;DHT22;10942;47.894;11.424;2023-06-14T01:28:31;10.80;99.90
21563;DHT22;10942;47.894;11.424;2023-06-14T02:12:47;10.20;99.90
21563;DHT22;10942;47.894;11.424;2023-06-14T02:15:13;10.10;99.90
21563;DHT22;10942;47.894;11.424;2023-06-14T02:17:46;10.10;99.90
21563;DHT22;10942;47.894;11.424;2023-06-14T02:20:16;10.00;99.90
21563;DHT22;10942;47.894;11.424;2023-06-14T02:22:42;10.00;99.90
21563;DHT22;10942;47.894;11.424;2023-06-14T02:25:08;10.00;99.90
21563;DHT22;10942;47.894;11.424;2023-06-14T02:27:34;9.90;99.90
21563;DHT22;10942;47.894;11.424;2023-06-14T02:30:03;10.00;99.90
21563;DHT22;10942;47.894;11.424;2023-06-14T02:32:31;9.90;99.90
21563;DHT22;10942;47.894;11.424;2023-06-14T02:34:59;9.90;99.90
21563;DHT22;10942;47.894;11.424;2023-06-14T02:37:25;9.90;99.90
21563;DHT22;10942;47.894;11.424;2023-06-14T02:39:52;9.90;99.90
21563;DHT22;10942;47.894;11.424;2023-06-14T02:42:18;9.90;99.90
21563;DHT22;10942;47.894;11.424;2023-06-14T02:44:43;9.80;99.90
21563;DHT22;10942;47.894;11.424;2023-06-14T02:47:10;9.80;99.90
21563;DHT22;10942;47.894;11.424;2023-06-14T02:49:36;9.80;99.90
21563;DHT22;10942;47.894;11.424;2023-06-14T02:52:02;9.80;99.90
21563;DHT22;10942;47.894;11.424;2023-06-14T02:54:28;9.70;99.90
21563;DHT22;10942;47.894;11.424;2023-06-14T02:56:54;9.70;99.90
21563;DHT22;10942;47.894;11.424;2023-06-14T02:59:20;9.70;99.90
21563;DHT22;10942;47.894;11.424;2023-06-14T03:01:47;9.60;99.90
21563;DHT22;10942;47.894;11.424;2023-06-14T03:04:14;9.60;99.90
21563;DHT22;10942;47.894;11.424;2023-06-14T03:06:41;9.60;99.90
21563;DHT22;10942;47.894;11.424;2023-06-14T03:09:10;9.60;99.90
21563;DHT22;10942;47.894;11.424;2023-06-14T03:11:38;9.60;99.90
21563;DHT22;10942;47.894;11.424;2023-06-14T03:16:32;9.50;99.90
21563;DHT22;10942;47.894;11.424;2023-06-14T03:18:59;9.40;99.90
21563;DHT22;10942;47.894;11.424;2023-06-14T03:21:28;9.30;99.90
21563;DHT22;10942;47.894;11.424;2023-06-14T03:23:57;9.30;99.90
21563;DHT22;10942;47.894;11.424;2023-06-14T03:26:24;9.30;99.90
21563;DHT22;10942;47.894;11.424;2023-06-14T03:28:52;9.30;99.90
21563;DHT22;10942;47.894;11.424;2023-06-14T03:31:19;9.30;99.90
21563;DHT22;10942;47.894;11.424;2023-06-14T03:33:45;9.30;99.90
21563;DHT22;10942;47.894;11.424;2023-06-14T03:36:12;9.40;99.90
21563;DHT22;10942;47.894;11.424;2023-06-14T03:38:39;9.40;99.90
21563;DHT22;10942;47.894;11.424;2023-06-14T03:41:05;9.40;99.90
21563;DHT22;10942;47.894;11.424;2023-06-14T03:43:31;9.30;99.90
21563;DHT22;10942;47.894;11.424;2023-06-14T03:45:57;9.40;99.90
21563;DHT22;10942;47.894;11.424;2023-06-14T03:48:25;9.50;99.90
21563;DHT22;10942;47.894;11.424;2023-06-14T03:50:51;9.70;99.90
21563;DHT22;10942;47.894;11.424;2023-06-14T03:53:16;9.90;99.90
21563;DHT22;10942;47.894;11.424;2023-06-14T03:55:47;10.10;99.90
21563;DHT22;10942;47.894;11.424;2023-06-14T03:58:15;10.40;99.90
21563;DHT22;10942;47.894;11.424;2023-06-14T04:00:41;10.60;99.90
21563;DHT22;10942;47.894;11.424;2023-06-14T04:03:07;10.90;99.90
21563;DHT22;10942;47.894;11.424;2023-06-14T04:05:32;11.00;99.90
21563;DHT22;10942;47.894;11.424;2023-06-14T04:07:58;11.10;99.90
21563;DHT22;10942;47.894;11.424;2023-06-14T04:10:26;11.30;99.90
21563;DHT22;10942;47.894;11.424;2023-06-14T04:12:52;11.30;99.90
21563;DHT22;10942;47.894;11.424;2023-06-14T04:15:18;11.30;99.90
21563;DHT22;10942;47.894;11.424;2023-06-14T04:17:44;11.30;99.90
21563;DHT22;10942;47.894;11.424;2023-06-14T04:20:10;11.20;99.90
21563;DHT22;10942;47.894;11.424;2023-06-14T04:22:36;11.30;99.90
21563;DHT22;10942;47.894;11.424;2023-06-14T04:25:04;11.20;99.90
21563;DHT22;10942;47.894;11.424;2023-06-14T04:27:32;11.10;99.90
21563;DHT22;10942;47.894;11.424;2023-06-14T04:30:02;11.10;99.90
21563;DHT22;10942;47.894;11.424;2023-06-14T04:32:34;11.20;99.90
21563;DHT22;10942;47.894;11.424;2023-06-14T04:35:06;11.30;99.90
21563;DHT22;10942;47.894;11.424;2023-06-14T04:37:33;11.20;99.90
21563;DHT22;10942;47.894;11.424;2023-06-14T04:39:59;11.10;99.90
21563;DHT22;10942;47.894;11.424;2023-06-14T04:42:26;11.10;99.90
21563;DHT22;10942;47.894;11.424;2023-06-14T04:44:57;11.00;99.90
21563;DHT22;10942;47.894;11.424;2023-06-14T04:47:23;11.20;99.90
21563;DHT22;10942;47.894;11.424;2023-06-14T04:49:57;11.30;99.90
21563;DHT22;10942;47.894;11.424;2023-06-14T04:52:23;11.20;99.90
21563;DHT22;10942;47.894;11.424;2023-06-14T04:54:52;11.20;99.90
21563;DHT22;10942;47.894;11.424;2023-06-14T04:57:20;11.20;99.90
21563;DHT22;10942;47.894;11.424;2023-06-14T04:59:49;11.40;99.90
21563;DHT22;10942;47.894;11.424;2023-06-14T05:02:22;11.70;99.90
21563;DHT22;10942;47.894;11.424;2023-06-14T05:04:48;12.20;99.90
21563;DHT22;10942;47.894;11.424;2023-06-14T05:07:14;12.80;99.90
21563;DHT22;10942;47.894;11.424;2023-06-14T05:09:41;13.00;99.90
21563;DHT22;10942;47.894;11.424;2023-06-14T05:12:07;13.70;99.90
21563;DHT22;10942;47.894;11.424;2023-06-14T05:14:36;14.20;99.90
21563;DHT22;10942;47.894;11.424;2023-06-14T05:17:03;14.70;99.90
21563;DHT22;10942;47.894;11.424;2023-06-14T05:19:29;15.00;99.90
21563;DHT22;10942;47.894;11.424;2023-06-14T05:21:54;15.80;99.90
21563;DHT22;10942;47.894;11.424;2023-06-14T05:24:20;15.90;99.90
21563;DHT22;10942;47.894;11.424;2023-06-14T05:26:46;16.50;99.90
21563;DHT22;10942;47.894;11.424;2023-06-14T05:29:12;16.90;99.90
21563;DHT22;10942;47.894;11.424;2023-06-14T05:31:38;17.60;99.80
21563;DHT22;10942;47.894;11.424;2023-06-14T05:34:04;17.60;98.50
21563;DHT22;10942;47.894;11.424;2023-06-14T05:38:56;18.50;97.70
21563;DHT22;10942;47.894;11.424;2023-06-14T05:41:25;18.40;96.60
21563;DHT22;10942;47.894;11.424;2023-06-14T05:43:52;18.40;97.10
21563;DHT22;10942;47.894;11.424;2023-06-14T05:46:18;19.30;96.70
21563;DHT22;10942;47.894;11.424;2023-06-14T05:48:48;20.00;95.80
21563;DHT22;10942;47.894;11.424;2023-06-14T05:51:14;21.00;94.70
21563;DHT22;10942;47.894;11.424;2023-06-14T05:53:40;21.60;94.60
21563;DHT22;10942;47.894;11.424;2023-06-14T05:56:06;22.20;93.10
21563;DHT22;10942;47.894;11.424;2023-06-14T05:58:31;22.40;92.20
21563;DHT22;10942;47.894;11.424;2023-06-14T06:00:57;22.40;92.40
21563;DHT22;10942;47.894;11.424;2023-06-14T06:03:23;23.00;92.20
21563;DHT22;10942;47.894;11.424;2023-06-14T06:05:49;23.20;91.00
21563;DHT22;10942;47.894;11.424;2023-06-14T06:08:14;22.50;91.30
21563;DHT22;10942;47.894;11.424;2023-06-14T06:10:42;23.50;90.70
21563;DHT22;10942;47.894;11.424;2023-06-14T06:13:08;24.30;89.90
21563;DHT22;10942;47.894;11.424;2023-06-14T06:15:33;24.80;87.80
21563;DHT22;10942;47.894;11.424;2023-06-14T06:17:59;24.60;88.50
21563;DHT22;10942;47.894;11.424;2023-06-14T06:20:25;24.40;87.90
21563;DHT22;10942;47.894;11.424;2023-06-14T06:22:55;24.70;87.60
21563;DHT22;10942;47.894;11.424;2023-06-14T06:25:21;25.40;87.60
21563;DHT22;10942;47.894;11.424;2023-06-14T06:27:47;25.80;93.60
21563;DHT22;10942;47.894;11.424;2023-06-14T06:30:13;25.60;87.20
21563;DHT22;10942;47.894;11.424;2023-06-14T06:32:39;26.90;83.70
21563;DHT22;10942;47.894;11.424;2023-06-14T06:35:05;27.40;80.90
21563;DHT22;10942;47.894;11.424;2023-06-14T06:39:58;27.70;76.90
21563;DHT22;10942;47.894;11.424;2023-06-14T06:44:50;28.00;89.00
21563;DHT22;10942;47.894;11.424;2023-06-14T06:47:16;28.10;82.70
21563;DHT22;10942;47.894;11.424;2023-06-14T06:49:42;28.20;79.20
21563;DHT22;10942;47.894;11.424;2023-06-14T06:52:08;28.40;77.00
21563;DHT22;10942;47.894;11.424;2023-06-14T06:54:34;29.10;88.80
21563;DHT22;10942;47.894;11.424;2023-06-14T07:01:55;29.50;73.40
21563;DHT22;10942;47.894;11.424;2023-06-14T07:04:21;29.90;75.00
21563;DHT22;10942;47.894;11.424;2023-06-14T07:06:47;30.50;73.40
21563;DHT22;10942;47.894;11.424;2023-06-14T07:09:13;30.90;71.70
21563;DHT22;10942;47.894;11.424;2023-06-14T07:11:44;31.00;72.40
21563;DHT22;10942;47.894;11.424;2023-06-14T07:16:37;31.00;72.60
21563;DHT22;10942;47.894;11.424;2023-06-14T07:19:03;29.70;72.50
21563;DHT22;10942;47.894;11.424;2023-06-14T07:21:29;30.30;74.00
21563;DHT22;10942;47.894;11.424;2023-06-14T07:23:55;29.80;72.10
21563;DHT22;10942;47.894;11.424;2023-06-14T07:26:21;30.80;73.00
21563;DHT22;10942;47.894;11.424;2023-06-14T07:28:47;30.80;84.10
21563;DHT22;10942;47.894;11.424;2023-06-14T07:33:41;31.10;96.20
21563;DHT22;10942;47.894;11.424;2023-06-14T07:36:08;31.80;80.80
21563;DHT22;10942;47.894;11.424;2023-06-14T07:38:33;31.90;70.30
21563;DHT22;10942;47.894;11.424;2023-06-14T07:41:00;32.20;68.60
21563;DHT22;10942;47.894;11.424;2023-06-14T07:43:25;32.00;67.00
21563;DHT22;10942;47.894;11.424;2023-06-14T07:45:51;31.20;68.60
21563;DHT22;10942;47.894;11.424;2023-06-14T07:48:17;31.90;68.40
21563;DHT22;10942;47.894;11.424;2023-06-14T07:50:43;32.10;68.40
21563;DHT22;10942;47.894;11.424;2023-06-14T07:53:09;32.30;68.40
21563;DHT22;10942;47.894;11.424;2023-06-14T07:55:35;32.80;66.00
21563;DHT22;10942;47.894;11.424;2023-06-14T07:58:08;32.40;64.00
